sensor_id;sensor_type;location;lat;lon;timestamp;temperature;humidity
44886;DHT22;36669;51.428;21.162;2023-04-25T00:02:10;13.60;99.90
44886;DHT22;36669;51.428;21.162;2023-04-25T00:04:37;13.50;99.90
44886;DHT22;36669;51.428;21.162;2023-04-25T00:07:04;13.40;99.90
44886;DHT22;36669;51.428;21.162;2023-04-25T00:09:32;13.20;99.90
44886;DHT22;36669;51.428;21.162;2023-04-25T00:11:59;13.10;99.90
44886;DHT22;36669;51.428;21.162;2023-04-25T00:14:28;13.00;99.90
44886;DHT22;36669;51.428;21.162;2023-04-25T00:16:55;12.90;99.90
44886;DHT22;36669;51.428;21.162;2023-04-25T00:19:22;12.80;99.90
44886;DHT22;36669;51.428;21.162;2023-04-25T00:21:48;12.80;99.90
44886;DHT22;36669;51.428;21.162;2023-04-25T00:24:14;12.80;99.90
44886;DHT22;36669;51.428;21.162;2023-04-25T00:26:41;12.80;99.90
44886;DHT22;36669;51.428;21.162;2023-04-25T00:29:06;12.70;99.90
44886;DHT22;36669;51.428;21.162;2023-04-25T00:31:33;12.80;99.90
44886;DHT22;36669;51.428;21.162;2023-04-25T00:34:00;12.80;99.90
44886;DHT22;36669;51.428;21.162;2023-04-25T00:36:25;12.80;99.90
44886;DHT22;36669;51.428;21.162;2023-04-25T00:38:53;12.90;99.90
44886;DHT22;36669;51.428;21.162;2023-04-25T00:41:20;12.90;99.90
44886;DHT22;36669;51.428;21.162;2023-04-25T00:43:47;12.90;99.90
44886;DHT22;36669;51.428;21.162;2023-04-25T00:46:13;12.90;99.90
44886;DHT22;36669;51.428;21.162;2023-04-25T00:48:40;12.80;99.90
44886;DHT22;36669;51.428;21.162;2023-04-25T00:51:06;12.80;99.90
44886;DHT22;36669;51.428;21.162;2023-04-25T00:53:32;12.80;99.90
44886;DHT22;36669;51.428;21.162;2023-04-25T00:56:00;12.70;99.90
44886;DHT22;36669;51.428;21.162;2023-04-25T00:58:27;12.70;99.90
44886;DHT22;36669;51.428;21.162;2023-04-25T01:00:53;12.50;99.90
44886;DHT22;36669;51.428;21.162;2023-04-25T01:03:19;12.50;99.90
44886;DHT22;36669;51.428;21.162;2023-04-25T01:05:47;12.40;99.90
44886;DHT22;36669;51.428;21.162;2023-04-25T01:08:13;12.30;99.90
44886;DHT22;36669;51.428;21.162;2023-04-25T01:10:40;12.20;99.90
44886;DHT22;36669;51.428;21.162;2023-04-25T01:13:07;12.20;99.90
44886;DHT22;36669;51.428;21.162;2023-04-25T01:15:34;12.20;99.90
44886;DHT22;36669;51.428;21.162;2023-04-25T01:18:03;12.20;99.90
44886;DHT22;36669;51.428;21.162;2023-04-25T01:20:33;12.20;99.90
44886;DHT22;36669;51.428;21.162;2023-04-25T01:22:59;12.20;99.90
44886;DHT22;36669;51.428;21.162;2023-04-25T01:25:26;12.10;99.90
44886;DHT22;36669;51.428;21.162;2023-04-25T01:27:52;12.10;99.90
44886;DHT22;36669;51.428;21.162;2023-04-25T01:30:18;12.10;99.90
44886;DHT22;36669;51.428;21.162;2023-04-25T01:32:45;12.10;99.90
44886;DHT22;36669;51.428;21.162;2023-04-25T01:35:11;11.90;99.90
44886;DHT22;36669;51.428;21.162;2023-04-25T01:37:42;11.90;99.90
44886;DHT22;36669;51.428;21.162;2023-04-25T01:40:09;11.80;99.90
44886;DHT22;36669;51.428;21.162;2023-04-25T01:42:37;11.90;99.90
44886;DHT22;36669;51.428;21.162;2023-04-25T01:45:03;11.90;99.90
44886;DHT22;36669;51.428;21.162;2023-04-25T01:47:29;11.90;99.90
44886;DHT22;36669;51.428;21.162;2023-04-25T01:49:55;11.90;99.90
44886;DHT22;36669;51.428;21.162;2023-04-25T01:52:23;11.90;99.90
44886;DHT22;36669;51.428;21.162;2023-04-25T01:54:50;11.80;99.90
44886;DHT22;36669;51.428;21.162;2023-04-25T01:57:18;11.70;99.90
44886;DHT22;36669;51.428;21.162;2023-04-25T01:59:44;11.70;99.90
44886;DHT22;36669;51.428;21.162;2023-04-25T02:02:11;11.80;99.90
44886;DHT22;36669;51.428;21.162;2023-04-25T02:04:38;11.70;99.90
44886;DHT22;36669;51.428;21.162;2023-04-25T02:07:05;11.70;99.90
44886;DHT22;36669;51.428;21.162;2023-04-25T02:09:31;11.70;99.90
44886;DHT22;36669;51.428;21.162;2023-04-25T02:11:57;11.60;99.90
44886;DHT22;36669;51.428;21.162;2023-04-25T02:14:23;11.50;99.90
44886;DHT22;36669;51.428;21.162;2023-04-25T02:16:50;11.50;99.90
44886;DHT22;36669;51.428;21.162;2023-04-25T02:19:16;11.50;99.90
44886;DHT22;36669;51.428;21.162;2023-04-25T02:21:43;11.50;99.90
44886;DHT22;36669;51.428;21.162;2023-04-25T02:24:09;11.50;99.90
44886;DHT22;36669;51.428;21.162;2023-04-25T02:26:36;11.40;99.90
44886;DHT22;36669;51.428;21.162;2023-04-25T02:29:03;11.40;99.90
44886;DHT22;36669;51.428;21.162;2023-04-25T02:31:30;11.40;99.90
44886;DHT22;36669;51.428;21.162;2023-04-25T02:33:56;11.40;99.90
44886;DHT22;36669;51.428;21.162;2023-04-25T02:36:23;11.30;99.90
44886;DHT22;36669;51.428;21.162;2023-04-25T02:38:50;11.30;99.90
44886;DHT22;36669;51.428;21.162;2023-04-25T02:41:17;11.30;99.90
44886;DHT22;36669;51.428;21.162;2023-04-25T02:43:44;11.20;99.90
44886;DHT22;36669;51.428;21.162;2023-04-25T02:46:11;11.20;99.90
44886;DHT22;36669;51.428;21.162;2023-04-25T02:48:38;11.10;99.90
44886;DHT22;36669;51.428;21.162;2023-04-25T02:51:05;11.20;99.90
44886;DHT22;36669;51.428;21.162;2023-04-25T02:53:31;11.20;99.90
44886;DHT22;36669;51.428;21.162;2023-04-25T02:55:58;11.20;99.90
44886;DHT22;36669;51.428;21.162;2023-04-25T02:58:25;11.20;99.90
44886;DHT22;36669;51.428;21.162;2023-04-25T03:00:52;11.30;99.90
44886;DHT22;36669;51.428;21.162;2023-04-25T03:03:19;11.30;99.90
44886;DHT22;36669;51.428;21.162;2023-04-25T03:05:51;11.30;99.90
44886;DHT22;36669;51.428;21.162;2023-04-25T03:08:18;11.40;99.90
44886;DHT22;36669;51.428;21.162;2023-04-25T03:10:44;11.40;99.90
44886;DHT22;36669;51.428;21.162;2023-04-25T03:13:11;11.50;99.90
44886;DHT22;36669;51.428;21.162;2023-04-25T03:15:38;11.50;99.90
44886;DHT22;36669;51.428;21.162;2023-04-25T03:18:05;11.50;99.90
44886;DHT22;36669;51.428;21.162;2023-04-25T03:20:32;11.50;99.90
44886;DHT22;36669;51.428;21.162;2023-04-25T03:22:57;11.50;99.90
44886;DHT22;36669;51.428;21.162;2023-04-25T03:25:23;11.40;99.90
44886;DHT22;36669;51.428;21.162;2023-04-25T03:27:50;11.40;99.90
44886;DHT22;36669;51.428;21.162;2023-04-25T03:30:17;11.30;99.90
44886;DHT22;36669;51.428;21.162;2023-04-25T03:32:45;11.40;99.90
44886;DHT22;36669;51.428;21.162;2023-04-25T03:35:12;11.40;99.90
44886;DHT22;36669;51.428;21.162;2023-04-25T03:37:39;11.40;99.90
44886;DHT22;36669;51.428;21.162;2023-04-25T03:40:07;11.30;99.90
44886;DHT22;36669;51.428;21.162;2023-04-25T03:42:32;11.30;99.90
44886;DHT22;36669;51.428;21.162;2023-04-25T03:44:59;11.30;99.90
44886;DHT22;36669;51.428;21.162;2023-04-25T03:47:25;11.30;99.90
44886;DHT22;36669;51.428;21.162;2023-04-25T03:49:51;11.40;99.90
44886;DHT22;36669;51.428;21.162;2023-04-25T03:52:18;11.40;99.90
44886;DHT22;36669;51.428;21.162;2023-04-25T03:54:45;11.40;99.90
44886;DHT22;36669;51.428;21.162;2023-04-25T03:57:12;11.40;99.90
44886;DHT22;36669;51.428;21.162;2023-04-25T03:59:39;11.40;99.90
44886;DHT22;36669;51.428;21.162;2023-04-25T04:02:06;11.40;99.90
44886;DHT22;36669;51.428;21.162;2023-04-25T04:04:32;11.40;99.90
44886;DHT22;36669;51.428;21.162;2023-04-25T04:06:58;11.40;99.90
44886;DHT22;36669;51.428;21.162;2023-04-25T04:09:24;11.40;99.90
44886;DHT22;36669;51.428;21.162;2023-04-25T04:11:52;11.40;99.90
44886;DHT22;36669;51.428;21.162;2023-04-25T04:14:19;11.40;99.90
44886;DHT22;36669;51.428;21.162;2023-04-25T04:16:46;11.40;99.90
44886;DHT22;36669;51.428;21.162;2023-04-25T04:19:13;11.40;99.90
44886;DHT22;36669;51.428;21.162;2023-04-25T04:21:40;11.30;99.90
44886;DHT22;36669;51.428;21.162;2023-04-25T04:24:05;11.30;99.90
44886;DHT22;36669;51.428;21.162;2023-04-25T04:26:32;11.30;99.90
44886;DHT22;36669;51.428;21.162;2023-04-25T04:29:01;11.30;99.90
44886;DHT22;36669;51.428;21.162;2023-04-25T04:31:27;11.30;99.90
44886;DHT22;36669;51.428;21.162;2023-04-25T04:33:54;11.30;99.90
44886;DHT22;36669;51.428;21.162;2023-04-25T04:36:20;11.40;99.90
44886;DHT22;36669;51.428;21.162;2023-04-25T04:38:47;11.40;99.90
44886;DHT22;36669;51.428;21.162;2023-04-25T04:41:14;11.30;99.90
44886;DHT22;36669;51.428;21.162;2023-04-25T04:43:41;11.30;99.90
44886;DHT22;36669;51.428;21.162;2023-04-25T04:46:08;11.30;99.90
44886;DHT22;36669;51.428;21.162;2023-04-25T04:48:35;11.20;99.90
44886;DHT22;36669;51.428;21.162;2023-04-25T04:51:02;11.20;99.90
44886;DHT22;36669;51.428;21.162;2023-04-25T04:53:29;11.20;99.90
44886;DHT22;36669;51.428;21.162;2023-04-25T04:55:56;11.20;99.90
44886;DHT22;36669;51.428;21.162;2023-04-25T04:58:23;11.20;99.90
44886;DHT22;36669;51.428;21.162;2023-04-25T05:00:50;11.20;99.90
44886;DHT22;36669;51.428;21.162;2023-04-25T05:03:15;11.10;99.90
44886;DHT22;36669;51.428;21.162;2023-04-25T05:05:42;11.10;99.90
44886;DHT22;36669;51.428;21.162;2023-04-25T05:08:08;11.10;99.90
44886;DHT22;36669;51.428;21.162;2023-04-25T05:10:35;11.00;99.90
44886;DHT22;36669;51.428;21.162;2023-04-25T05:13:02;11.00;99.90
44886;DHT22;36669;51.428;21.162;2023-04-25T05:15:28;10.90;99.90
44886;DHT22;36669;51.428;21.162;2023-04-25T05:17:55;11.00;99.90
44886;DHT22;36669;51.428;21.162;2023-04-25T05:20:22;11.00;99.90
44886;DHT22;36669;51.428;21.162;2023-04-25T05:22:49;11.00;99.90
44886;DHT22;36669;51.428;21.162;2023-04-25T05:25:15;11.00;99.90
44886;DHT22;36669;51.428;21.162;2023-04-25T05:27:42;11.00;99.90
44886;DHT22;36669;51.428;21.162;2023-04-25T05:30:09;11.00;99.90
44886;DHT22;36669;51.428;21.162;2023-04-25T05:32:36;11.00;99.90
44886;DHT22;36669;51.428;21.162;2023-04-25T05:35:05;11.00;99.90
44886;DHT22;36669;51.428;21.162;2023-04-25T05:37:35;10.90;99.90
44886;DHT22;36669;51.428;21.162;2023-04-25T05:40:00;10.90;99.90
44886;DHT22;36669;51.428;21.162;2023-04-25T05:42:27;10.90;99.90
44886;DHT22;36669;51.428;21.162;2023-04-25T05:44:53;10.80;99.90
44886;DHT22;36669;51.428;21.162;2023-04-25T05:47:19;10.70;99.90
44886;DHT22;36669;51.428;21.162;2023-04-25T05:49:46;10.70;99.90
44886;DHT22;36669;51.428;21.162;2023-04-25T05:52:13;10.70;99.90
44886;DHT22;36669;51.428;21.162;2023-04-25T05:54:41;10.70;99.90
44886;DHT22;36669;51.428;21.162;2023-04-25T05:57:08;10.60;99.90
44886;DHT22;36669;51.428;21.162;2023-04-25T05:59:35;10.60;99.90
44886;DHT22;36669;51.428;21.162;2023-04-25T06:02:02;10.60;99.90
44886;DHT22;36669;51.428;21.162;2023-04-25T06:04:29;10.70;99.90
44886;DHT22;36669;51.428;21.162;2023-04-25T06:06:56;10.70;99.90
44886;DHT22;36669;51.428;21.162;2023-04-25T06:09:23;10.70;99.90
44886;DHT22;36669;51.428;21.162;2023-04-25T06:11:48;10.70;99.90
44886;DHT22;36669;51.428;21.162;2023-04-25T06:14:15;10.70;99.90
44886;DHT22;36669;51.428;21.162;2023-04-25T06:16:42;10.70;99.90
44886;DHT22;36669;51.428;21.162;2023-04-25T06:19:09;10.60;99.90
44886;DHT22;36669;51.428;21.162;2023-04-25T06:21:36;10.60;99.90
44886;DHT22;36669;51.428;21.162;2023-04-25T06:24:03;10.50;99.90
44886;DHT22;36669;51.428;21.162;2023-04-25T06:26:30;10.50;99.90
44886;DHT22;36669;51.428;21.162;2023-04-25T06:28:55;10.50;99.90
44886;DHT22;36669;51.428;21.162;2023-04-25T06:31:22;10.50;99.90
44886;DHT22;36669;51.428;21.162;2023-04-25T06:33:49;10.50;99.90
44886;DHT22;36669;51.428;21.162;2023-04-25T06:36:15;10.60;99.90
44886;DHT22;36669;51.428;21.162;2023-04-25T06:38:41;10.60;99.90
44886;DHT22;36669;51.428;21.162;2023-04-25T06:41:07;10.60;99.90
44886;DHT22;36669;51.428;21.162;2023-04-25T06:43:34;10.50;99.90
44886;DHT22;36669;51.428;21.162;2023-04-25T06:46:01;10.50;99.90
44886;DHT22;36669;51.428;21.162;2023-04-25T06:48:26;10.50;99.90
44886;DHT22;36669;51.428;21.162;2023-04-25T06:50:53;10.50;99.90
44886;DHT22;36669;51.428;21.162;2023-04-25T06:53:20;10.40;99.90
44886;DHT22;36669;51.428;21.162;2023-04-25T06:55:47;10.40;99.90
44886;DHT22;36669;51.428;21.162;2023-04-25T06:58:14;10.30;99.90
44886;DHT22;36669;51.428;21.162;2023-04-25T07:00:41;10.30;99.90
44886;DHT22;36669;51.428;21.162;2023-04-25T07:03:08;10.30;99.90
44886;DHT22;36669;51.428;21.162;2023-04-25T07:05:35;10.30;99.90
44886;DHT22;36669;51.428;21.162;2023-04-25T07:08:02;10.30;99.90
44886;DHT22;36669;51.428;21.162;2023-04-25T07:10:29;10.30;99.90
44886;DHT22;36669;51.428;21.162;2023-04-25T07:12:56;10.20;99.90
44886;DHT22;36669;51.428;21.162;2023-04-25T07:15:23;10.20;99.90
44886;DHT22;36669;51.428;21.162;2023-04-25T07:17:49;10.20;99.90
44886;DHT22;36669;51.428;21.162;2023-04-25T07:20:16;10.20;99.90
44886;DHT22;36669;51.428;21.162;2023-04-25T07:22:43;10.20;99.90
44886;DHT22;36669;51.428;21.162;2023-04-25T07:25:10;10.10;99.90
44886;DHT22;36669;51.428;21.162;2023-04-25T07:27:37;10.20;99.90
44886;DHT22;36669;51.428;21.162;2023-04-25T07:30:05;10.10;99.90
44886;DHT22;36669;51.428;21.162;2023-04-25T07:32:34;10.10;99.90
44886;DHT22;36669;51.428;21.162;2023-04-25T07:35:01;10.00;99.90
44886;DHT22;36669;51.428;21.162;2023-04-25T07:37:27;10.00;99.90
44886;DHT22;36669;51.428;21.162;2023-04-25T07:39:54;9.90;99.90
44886;DHT22;36669;51.428;21.162;2023-04-25T07:42:21;9.80;99.90
44886;DHT22;36669;51.428;21.162;2023-04-25T07:44:48;9.70;99.90
44886;DHT22;36669;51.428;21.162;2023-04-25T07:47:15;9.70;99.90
44886;DHT22;36669;51.428;21.162;2023-04-25T07:49:41;9.60;99.90
44886;DHT22;36669;51.428;21.162;2023-04-25T07:52:08;9.60;99.90
44886;DHT22;36669;51.428;21.162;2023-04-25T07:54:35;9.60;99.90
44886;DHT22;36669;51.428;21.162;2023-04-25T07:57:00;9.60;99.90
44886;DHT22;36669;51.428;21.162;2023-04-25T07:59:28;9.60;99.90
44886;DHT22;36669;51.428;21.162;2023-04-25T08:01:55;9.60;99.90
44886;DHT22;36669;51.428;21.162;2023-04-25T08:04:23;9.60;99.90
44886;DHT22;36669;51.428;21.162;2023-04-25T08:06:49;9.60;99.90
44886;DHT22;36669;51.428;21.162;2023-04-25T08:09:15;9.50;99.90
44886;DHT22;36669;51.428;21.162;2023-04-25T08:11:42;9.50;99.90
44886;DHT22;36669;51.428;21.162;2023-04-25T08:14:10;9.40;99.90
44886;DHT22;36669;51.428;21.162;2023-04-25T08:16:38;9.50;99.90
44886;DHT22;36669;51.428;21.162;2023-04-25T08:19:03;9.30;99.90
44886;DHT22;36669;51.428;21.162;2023-04-25T08:21:32;9.30;99.90
44886;DHT22;36669;51.428;21.162;2023-04-25T08:23:58;9.20;99.90
44886;DHT22;36669;51.428;21.162;2023-04-25T08:26:28;9.00;99.90
44886;DHT22;36669;51.428;21.162;2023-04-25T08:28:55;9.00;99.90
44886;DHT22;36669;51.428;21.162;2023-04-25T08:31:21;8.90;99.90
44886;DHT22;36669;51.428;21.162;2023-04-25T08:33:50;8.90;99.90
44886;DHT22;36669;51.428;21.162;2023-04-25T08:36:38;8.90;99.90
44886;DHT22;36669;51.428;21.162;2023-04-25T08:39:08;8.90;99.90
44886;DHT22;36669;51.428;21.162;2023-04-25T08:41:36;8.90;99.90
44886;DHT22;36669;51.428;21.162;2023-04-25T08:44:02;8.90;99.90
44886;DHT22;36669;51.428;21.162;2023-04-25T08:46:29;8.90;99.90
44886;DHT22;36669;51.428;21.162;2023-04-25T08:49:00;9.00;99.90
44886;DHT22;36669;51.428;21.162;2023-04-25T08:51:26;8.90;99.90
44886;DHT22;36669;51.428;21.162;2023-04-25T08:53:54;9.00;99.90
44886;DHT22;36669;51.428;21.162;2023-04-25T08:56:22;8.90;99.90
44886;DHT22;36669;51.428;21.162;2023-04-25T08:58:50;9.00;99.90
44886;DHT22;36669;51.428;21.162;2023-04-25T09:01:17;8.90;99.90
44886;DHT22;36669;51.428;21.162;2023-04-25T09:03:44;8.90;99.90
44886;DHT22;36669;51.428;21.162;2023-04-25T09:06:10;8.90;99.90
44886;DHT22;36669;51.428;21.162;2023-04-25T09:08:36;8.90;99.90
44886;DHT22;36669;51.428;21.162;2023-04-25T09:11:02;8.80;99.90
44886;DHT22;36669;51.428;21.162;2023-04-25T09:13:28;8.80;99.90
44886;DHT22;36669;51.428;21.162;2023-04-25T09:15:56;8.90;99.90
44886;DHT22;36669;51.428;21.162;2023-04-25T09:18:34;8.90;99.90
44886;DHT22;36669;51.428;21.162;2023-04-25T09:21:09;8.90;99.90
44886;DHT22;36669;51.428;21.162;2023-04-25T09:23:41;8.90;99.90
44886;DHT22;36669;51.428;21.162;2023-04-25T09:26:08;8.90;99.90
44886;DHT22;36669;51.428;21.162;2023-04-25T09:28:35;9.00;99.90
44886;DHT22;36669;51.428;21.162;2023-04-25T09:31:03;9.00;99.90
44886;DHT22;36669;51.428;21.162;2023-04-25T09:33:29;9.00;99.90
44886;DHT22;36669;51.428;21.162;2023-04-25T09:36:01;9.00;99.90
44886;DHT22;36669;51.428;21.162;2023-04-25T09:38:28;9.00;99.90
44886;DHT22;36669;51.428;21.162;2023-04-25T09:40:58;9.00;99.90
44886;DHT22;36669;51.428;21.162;2023-04-25T09:43:24;9.00;99.90
44886;DHT22;36669;51.428;21.162;2023-04-25T09:45:51;9.00;99.90
44886;DHT22;36669;51.428;21.162;2023-04-25T09:48:21;9.00;99.90
44886;DHT22;36669;51.428;21.162;2023-04-25T09:51:03;9.00;99.90
44886;DHT22;36669;51.428;21.162;2023-04-25T09:53:30;9.10;99.90
44886;DHT22;36669;51.428;21.162;2023-04-25T09:55:58;9.10;99.90
44886;DHT22;36669;51.428;21.162;2023-04-25T09:58:26;9.20;99.90
44886;DHT22;36669;51.428;21.162;2023-04-25T10:00:54;9.30;99.90
44886;DHT22;36669;51.428;21.162;2023-04-25T10:03:24;9.30;99.90
44886;DHT22;36669;51.428;21.162;2023-04-25T10:05:51;9.40;99.90
44886;DHT22;36669;51.428;21.162;2023-04-25T10:08:18;9.30;99.90
44886;DHT22;36669;51.428;21.162;2023-04-25T10:10:45;9.30;99.90
44886;DHT22;36669;51.428;21.162;2023-04-25T10:13:13;9.40;99.90
44886;DHT22;36669;51.428;21.162;2023-04-25T10:15:42;9.40;99.90
44886;DHT22;36669;51.428;21.162;2023-04-25T10:18:09;9.40;99.90
44886;DHT22;36669;51.428;21.162;2023-04-25T10:20:36;9.50;99.90
44886;DHT22;36669;51.428;21.162;2023-04-25T10:23:12;9.50;99.90
44886;DHT22;36669;51.428;21.162;2023-04-25T10:25:40;9.40;99.90
44886;DHT22;36669;51.428;21.162;2023-04-25T10:28:06;9.50;99.90
44886;DHT22;36669;51.428;21.162;2023-04-25T10:30:32;9.50;99.90
44886;DHT22;36669;51.428;21.162;2023-04-25T10:32:58;9.60;99.90
44886;DHT22;36669;51.428;21.162;2023-04-25T10:35:27;9.80;99.90
44886;DHT22;36669;51.428;21.162;2023-04-25T10:38:09;9.90;99.90
44886;DHT22;36669;51.428;21.162;2023-04-25T10:40:36;9.90;99.90
44886;DHT22;36669;51.428;21.162;2023-04-25T10:44:03;9.80;99.90
44886;DHT22;36669;51.428;21.162;2023-04-25T10:45:59;9.80;99.90
44886;DHT22;36669;51.428;21.162;2023-04-25T10:48:30;9.90;99.90
44886;DHT22;36669;51.428;21.162;2023-04-25T10:51:11;9.80;99.90
44886;DHT22;36669;51.428;21.162;2023-04-25T10:53:37;9.80;99.90
44886;DHT22;36669;51.428;21.162;2023-04-25T10:56:11;9.80;99.90
44886;DHT22;36669;51.428;21.162;2023-04-25T10:58:41;9.70;99.90
44886;DHT22;36669;51.428;21.162;2023-04-25T11:01:08;9.80;99.90
44886;DHT22;36669;51.428;21.162;2023-04-25T11:03:39;9.80;99.90
44886;DHT22;36669;51.428;21.162;2023-04-25T11:06:07;9.80;99.90
44886;DHT22;36669;51.428;21.162;2023-04-25T11:08:55;9.80;99.90
44886;DHT22;36669;51.428;21.162;2023-04-25T11:11:21;9.70;99.90
44886;DHT22;36669;51.428;21.162;2023-04-25T11:13:49;9.80;99.90
44886;DHT22;36669;51.428;21.162;2023-04-25T11:16:17;9.80;99.90
44886;DHT22;36669;51.428;21.162;2023-04-25T11:18:44;9.80;99.90
44886;DHT22;36669;51.428;21.162;2023-04-25T11:21:11;9.70;99.90
44886;DHT22;36669;51.428;21.162;2023-04-25T11:23:39;9.80;99.90
44886;DHT22;36669;51.428;21.162;2023-04-25T11:26:06;9.80;99.90
44886;DHT22;36669;51.428;21.162;2023-04-25T11:28:33;9.80;99.90
44886;DHT22;36669;51.428;21.162;2023-04-25T11:30:59;9.80;99.90
44886;DHT22;36669;51.428;21.162;2023-04-25T11:33:26;9.70;99.90
44886;DHT22;36669;51.428;21.162;2023-04-25T11:35:56;9.70;99.90
44886;DHT22;36669;51.428;21.162;2023-04-25T11:38:22;9.70;99.90
44886;DHT22;36669;51.428;21.162;2023-04-25T11:40:50;9.80;99.90
44886;DHT22;36669;51.428;21.162;2023-04-25T11:43:18;9.70;99.90
44886;DHT22;36669;51.428;21.162;2023-04-25T11:45:48;9.80;99.90
44886;DHT22;36669;51.428;21.162;2023-04-25T11:48:14;9.80;99.90
44886;DHT22;36669;51.428;21.162;2023-04-25T11:50:40;9.70;99.90
44886;DHT22;36669;51.428;21.162;2023-04-25T11:53:06;9.80;99.90
44886;DHT22;36669;51.428;21.162;2023-04-25T11:55:34;9.70;99.90
44886;DHT22;36669;51.428;21.162;2023-04-25T11:58:02;9.70;99.90
44886;DHT22;36669;51.428;21.162;2023-04-25T12:00:30;9.70;99.90
44886;DHT22;36669;51.428;21.162;2023-04-25T12:02:56;9.70;99.90
44886;DHT22;36669;51.428;21.162;2023-04-25T12:05:24;9.70;99.90
44886;DHT22;36669;51.428;21.162;2023-04-25T12:07:52;9.80;99.90
44886;DHT22;36669;51.428;21.162;2023-04-25T12:10:19;9.70;99.90
44886;DHT22;36669;51.428;21.162;2023-04-25T12:12:46;9.70;99.90
44886;DHT22;36669;51.428;21.162;2023-04-25T12:15:23;9.60;99.90
44886;DHT22;36669;51.428;21.162;2023-04-25T12:17:51;9.60;99.90
44886;DHT22;36669;51.428;21.162;2023-04-25T12:20:18;9.60;99.90
44886;DHT22;36669;51.428;21.162;2023-04-25T12:22:51;9.60;99.90
44886;DHT22;36669;51.428;21.162;2023-04-25T12:31:00;9.60;99.90
44886;DHT22;36669;51.428;21.162;2023-04-25T12:33:29;9.60;99.90
44886;DHT22;36669;51.428;21.162;2023-04-25T12:35:57;9.60;99.90
44886;DHT22;36669;51.428;21.162;2023-04-25T12:40:50;9.60;99.90
44886;DHT22;36669;51.428;21.162;2023-04-25T12:43:15;9.70;99.90
44886;DHT22;36669;51.428;21.162;2023-04-25T12:45:44;9.70;99.90
44886;DHT22;36669;51.428;21.162;2023-04-25T12:48:11;9.70;99.90
44886;DHT22;36669;51.428;21.162;2023-04-25T12:50:38;9.60;99.90
44886;DHT22;36669;51.428;21.162;2023-04-25T12:53:03;9.60;99.90
44886;DHT22;36669;51.428;21.162;2023-04-25T12:55:30;9.60;99.90
44886;DHT22;36669;51.428;21.162;2023-04-25T12:57:57;9.70;99.90
44886;DHT22;36669;51.428;21.162;2023-04-25T13:00:25;9.70;99.90
44886;DHT22;36669;51.428;21.162;2023-04-25T13:02:53;9.60;99.90
44886;DHT22;36669;51.428;21.162;2023-04-25T13:05:18;9.70;99.90
44886;DHT22;36669;51.428;21.162;2023-04-25T13:07:46;9.90;99.90
44886;DHT22;36669;51.428;21.162;2023-04-25T13:10:13;9.90;99.90
44886;DHT22;36669;51.428;21.162;2023-04-25T13:12:38;10.00;99.90
44886;DHT22;36669;51.428;21.162;2023-04-25T13:15:07;10.00;99.90
44886;DHT22;36669;51.428;21.162;2023-04-25T13:17:35;10.00;99.90
44886;DHT22;36669;51.428;21.162;2023-04-25T13:20:02;9.90;99.90
44886;DHT22;36669;51.428;21.162;2023-04-25T13:22:32;9.90;99.90
44886;DHT22;36669;51.428;21.162;2023-04-25T13:24:58;9.80;99.90
44886;DHT22;36669;51.428;21.162;2023-04-25T13:27:25;9.80;99.90
44886;DHT22;36669;51.428;21.162;2023-04-25T13:29:52;9.70;99.90
44886;DHT22;36669;51.428;21.162;2023-04-25T13:32:17;9.80;99.90
44886;DHT22;36669;51.428;21.162;2023-04-25T13:34:44;9.80;99.90
44886;DHT22;36669;51.428;21.162;2023-04-25T13:37:11;9.80;99.90
44886;DHT22;36669;51.428;21.162;2023-04-25T13:39:37;9.70;99.90
44886;DHT22;36669;51.428;21.162;2023-04-25T13:42:04;9.70;99.90
44886;DHT22;36669;51.428;21.162;2023-04-25T13:44:30;9.60;99.90
44886;DHT22;36669;51.428;21.162;2023-04-25T13:46:57;9.60;99.90
44886;DHT22;36669;51.428;21.162;2023-04-25T13:49:22;9.60;99.90
44886;DHT22;36669;51.428;21.162;2023-04-25T13:51:48;9.60;99.90
44886;DHT22;36669;51.428;21.162;2023-04-25T13:54:15;9.50;99.90
44886;DHT22;36669;51.428;21.162;2023-04-25T13:56:41;9.60;99.90
44886;DHT22;36669;51.428;21.162;2023-04-25T13:59:07;9.60;99.90
44886;DHT22;36669;51.428;21.162;2023-04-25T14:01:33;9.60;99.90
44886;DHT22;36669;51.428;21.162;2023-04-25T14:04:02;9.60;99.90
44886;DHT22;36669;51.428;21.162;2023-04-25T14:06:35;9.60;99.90
44886;DHT22;36669;51.428;21.162;2023-04-25T14:09:02;9.60;99.90
44886;DHT22;36669;51.428;21.162;2023-04-25T14:11:31;9.60;99.90
44886;DHT22;36669;51.428;21.162;2023-04-25T14:13:56;9.60;99.90
44886;DHT22;36669;51.428;21.162;2023-04-25T14:16:23;9.50;99.90
44886;DHT22;36669;51.428;21.162;2023-04-25T14:18:49;9.50;99.90
44886;DHT22;36669;51.428;21.162;2023-04-25T14:21:16;9.50;99.90
44886;DHT22;36669;51.428;21.162;2023-04-25T14:23:44;9.40;99.90
44886;DHT22;36669;51.428;21.162;2023-04-25T14:26:10;9.50;99.90
44886;DHT22;36669;51.428;21.162;2023-04-25T14:28:39;9.50;99.90
44886;DHT22;36669;51.428;21.162;2023-04-25T14:31:04;9.40;99.90
44886;DHT22;36669;51.428;21.162;2023-04-25T14:33:32;9.30;99.90
44886;DHT22;36669;51.428;21.162;2023-04-25T14:35:59;9.30;99.90
44886;DHT22;36669;51.428;21.162;2023-04-25T14:38:28;9.20;99.90
44886;DHT22;36669;51.428;21.162;2023-04-25T14:40:56;9.30;99.90
44886;DHT22;36669;51.428;21.162;2023-04-25T14:43:22;9.20;99.90
44886;DHT22;36669;51.428;21.162;2023-04-25T14:45:48;9.20;99.90
44886;DHT22;36669;51.428;21.162;2023-04-25T14:48:15;9.20;99.90
44886;DHT22;36669;51.428;21.162;2023-04-25T14:50:43;9.20;99.90
44886;DHT22;36669;51.428;21.162;2023-04-25T14:53:08;9.20;99.90
44886;DHT22;36669;51.428;21.162;2023-04-25T14:55:35;9.20;99.90
44886;DHT22;36669;51.428;21.162;2023-04-25T14:58:02;9.10;99.90
44886;DHT22;36669;51.428;21.162;2023-04-25T15:00:29;9.10;99.90
44886;DHT22;36669;51.428;21.162;2023-04-25T15:02:58;9.10;99.90
44886;DHT22;36669;51.428;21.162;2023-04-25T15:05:24;9.10;99.90
44886;DHT22;36669;51.428;21.162;2023-04-25T15:07:50;9.00;99.90
44886;DHT22;36669;51.428;21.162;2023-04-25T15:10:16;9.10;99.90
44886;DHT22;36669;51.428;21.162;2023-04-25T15:12:43;9.00;99.90
44886;DHT22;36669;51.428;21.162;2023-04-25T15:15:09;9.00;99.90
44886;DHT22;36669;51.428;21.162;2023-04-25T15:17:41;9.00;99.90
44886;DHT22;36669;51.428;21.162;2023-04-25T15:20:09;9.00;99.90
44886;DHT22;36669;51.428;21.162;2023-04-25T15:22:38;8.90;99.90
44886;DHT22;36669;51.428;21.162;2023-04-25T15:25:05;9.00;99.90
44886;DHT22;36669;51.428;21.162;2023-04-25T15:27:33;8.80;99.90
44886;DHT22;36669;51.428;21.162;2023-04-25T15:30:04;8.80;99.90
44886;DHT22;36669;51.428;21.162;2023-04-25T15:32:33;8.70;99.90